Terminal Aerodrome Forecast
Issued by NWS

Home | Current Version | Previous Version | Text Only | Print | Product List | Glossary On
Versions: 1 2 3 4 5 6 7 8 9 10 11 12 13 14 15 16
000
FTUS42 KTBW 030525
TAFPIE
TAF
KPIE 030525Z 0306/0406 15005KT P6SM BKN250
     FM030800 14004KT P6SM SCT250
     FM031600 12005KT P6SM VCTS SCT035CB SCT250
     FM032100 31007KT P6SM VCSH SCT050 SCT120 BKN250
     FM040100 VRB03KT P6SM BKN250=

USA.gov is the U.S. government's official web portal to all federal, state and local government web resources and services.